Time;durP1;ratioP1;P1;durP2;ratioP2;P2;SDS_P1;SDS_P2;PMS_P1;PMS_P2;Temp;Humidity;BMP_temperature;BMP_pressure;BME280_temperature;BME280_humidity;BME280_pressure;Samples;Min_cycle;Max_cycle;Signal;HPM_P1;HPM_P2
2021/11/10 00:02:40;;;;;;;22.98;10.05;;;;;;;2.23;91.63;101365.97;20989246;28;20052;-70
2021/11/10 00:12:43;;;;;;;18.05;9.40;;;;;;;2.11;92.29;101364.66;20989386;28;20044;-69
2021/11/10 00:22:44;;;;;;;15.43;8.27;;;;;;;1.97;92.91;101356.47;20988241;28;20044;-69
2021/11/10 00:32:46;;;;;;;17.92;8.20;;;;;;;1.87;92.82;101364.69;20985753;28;20045;-69
2021/11/10 00:42:47;;;;;;;16.02;8.20;;;;;;;1.83;93.28;101358.56;20985015;28;20494;-70
2021/11/10 00:52:49;;;;;;;19.67;7.85;;;;;;;1.70;94.04;101346.94;20985381;28;20466;-70
2021/11/10 01:02:51;;;;;;;19.45;7.45;;;;;;;1.58;93.16;101345.59;20984205;28;20098;-69
2021/11/10 01:12:53;;;;;;;17.48;7.70;;;;;;;1.48;93.09;101357.28;20984776;28;20464;-69
2021/11/10 01:22:54;;;;;;;13.05;8.00;;;;;;;1.38;93.27;101355.19;20983262;28;20049;-69
2021/11/10 01:33:00;;;;;;;18.58;8.30;;;;;;;1.22;93.42;101351.19;20984023;28;20564;-70
2021/11/10 01:43:07;;;;;;;14.13;7.75;;;;;;;1.18;92.84;101345.03;20983710;28;20048;-70
2021/11/10 01:53:09;;;;;;;22.17;9.48;;;;;;;1.16;93.19;101354.41;20984862;28;20044;-69
2021/11/10 02:03:11;;;;;;;16.48;7.93;;;;;;;1.03;93.78;101354.78;20999237;28;20052;-69
2021/11/10 02:13:12;;;;;;;18.75;8.88;;;;;;;1.01;93.48;101346.13;20998234;28;20041;-70
2021/11/10 02:23:16;;;;;;;14.85;8.10;;;;;;;0.90;93.12;101332.78;20997695;28;20386;-70
2021/11/10 02:33:26;;;;;;;15.30;8.43;;;;;;;0.72;93.15;101307.19;20996621;28;20041;-69
2021/11/10 02:43:30;;;;;;;17.60;8.65;;;;;;;0.71;93.41;101320.00;20996443;28;20055;-69
2021/11/10 02:53:33;;;;;;;14.27;8.10;;;;;;;0.71;93.59;101310.56;20996073;28;20109;-70
2021/11/10 03:03:35;;;;;;;19.02;9.05;;;;;;;0.48;92.91;101272.75;20994106;28;20044;-70
2021/11/10 03:13:39;;;;;;;18.88;9.27;;;;;;;0.51;93.15;101259.97;20994661;28;20535;-70
2021/11/10 03:23:41;;;;;;;16.17;8.95;;;;;;;0.47;93.55;101258.09;20992522;28;20044;-69
2021/11/10 03:33:42;;;;;;;18.40;9.32;;;;;;;0.45;93.26;101260.63;20991496;28;20041;-69
2021/11/10 03:43:44;;;;;;;19.65;10.13;;;;;;;0.49;93.41;101266.78;20991122;28;20056;-69
2021/11/10 03:53:47;;;;;;;20.85;10.07;;;;;;;0.44;92.49;101278.59;20991208;28;20482;-69
2021/11/10 04:03:48;;;;;;;18.25;9.27;;;;;;;0.36;92.86;101270.56;20989394;28;20049;-70
2021/11/10 04:13:51;;;;;;;16.75;8.95;;;;;;;0.27;91.89;101284.78;20989155;28;20346;-69
2021/11/10 04:23:54;;;;;;;20.42;10.00;;;;;;;0.23;91.69;101310.38;20987940;28;20516;-69
2021/11/10 04:33:57;;;;;;;22.20;9.98;;;;;;;0.19;91.63;101329.13;20986241;28;20036;-69
2021/11/10 04:43:58;;;;;;;24.58;10.82;;;;;;;0.08;92.58;101321.78;20985907;28;20044;-69
2021/11/10 04:54:06;;;;;;;20.75;10.10;;;;;;;0.08;92.59;101290.88;20985406;28;20485;-69
2021/11/10 05:04:08;;;;;;;23.02;10.00;;;;;;;-0.21;92.76;101305.09;20984791;28;20463;-70
2021/11/10 05:14:11;;;;;;;17.15;8.88;;;;;;;-0.31;92.93;101303.84;20982928;28;20097;-70
2021/11/10 05:24:13;;;;;;;16.98;8.38;;;;;;;-0.25;93.11;101288.66;20984080;28;20494;-70
2021/11/10 05:34:14;;;;;;;16.45;8.95;;;;;;;-0.38;92.90;101296.69;20983322;28;20048;-70
2021/11/10 05:44:16;;;;;;;18.33;9.38;;;;;;;-0.45;93.24;101303.25;20982817;28;20142;-69
2021/11/10 05:54:17;;;;;;;20.55;11.07;;;;;;;-0.42;93.19;101303.38;20982642;28;20098;-69
2021/11/10 06:04:19;;;;;;;21.30;10.27;;;;;;;-0.38;93.17;101286.41;20981658;28;20048;-69
2021/11/10 06:14:21;;;;;;;25.40;12.13;;;;;;;-0.51;93.36;101292.69;20981854;28;20049;-69
2021/11/10 06:24:22;;;;;;;21.25;10.07;;;;;;;-0.56;93.31;101295.06;20981086;28;20057;-69
2021/11/10 06:34:24;;;;;;;20.33;10.05;;;;;;;-0.57;93.87;101306.19;20980092;28;20044;-69
2021/11/10 06:44:25;;;;;;;18.92;9.95;;;;;;;-0.50;93.58;101312.47;20990384;28;20102;-69
2021/11/10 06:54:27;;;;;;;20.75;10.98;;;;;;;-0.59;92.05;101309.47;20996065;28;20057;-69
2021/11/10 07:04:28;;;;;;;21.35;12.38;;;;;;;-0.40;93.17;101334.31;20994039;28;20057;-69
2021/11/10 07:14:30;;;;;;;28.00;16.63;;;;;;;-0.11;93.48;101335.56;20993843;28;20053;-70
2021/11/10 07:24:32;;;;;;;28.23;15.68;;;;;;;0.08;93.89;101330.38;20992320;28;20098;-68
2021/11/10 07:34:34;;;;;;;27.25;15.70;;;;;;;0.23;93.15;101333.56;20991163;28;20463;-68
2021/11/10 07:44:36;;;;;;;26.48;13.82;;;;;;;0.34;93.73;101328.00;20991447;28;20052;-68
2021/11/10 07:54:38;;;;;;;27.80;15.63;;;;;;;0.80;93.97;101335.84;20946808;28;20095;-68
2021/11/10 08:04:40;;;;;;;24.42;14.70;;;;;;;1.15;92.87;101369.81;20917774;28;20497;-68
2021/11/10 08:14:42;;;;;;;22.08;12.50;;;;;;;1.23;92.89;101360.69;20945094;28;20041;-68
2021/11/10 08:24:47;;;;;;;19.65;11.50;;;;;;;1.25;93.07;101377.09;20936830;28;20126;-67
2021/11/10 08:34:49;;;;;;;19.13;11.35;;;;;;;1.31;92.32;101358.41;20907189;28;20122;-67
2021/11/10 08:44:53;;;;;;;19.77;12.23;;;;;;;1.65;93.97;101358.78;20973482;28;20060;-67
2021/11/10 08:54:55;;;;;;;17.70;12.27;;;;;;;2.21;92.67;101364.19;20975371;28;20041;-67
2021/11/10 09:04:56;;;;;;;20.83;12.73;;;;;;;2.62;91.89;101350.00;20894000;28;20110;-67
2021/11/10 09:14:59;;;;;;;22.77;14.20;;;;;;;2.80;90.78;101344.53;20938054;28;20056;-67
2021/11/10 09:25:00;;;;;;;18.42;11.35;;;;;;;2.60;90.30;101359.44;20975869;28;20665;-67
2021/11/10 09:35:06;;;;;;;15.98;10.70;;;;;;;2.75;90.33;101359.03;20975481;28;20079;-67
2021/11/10 09:45:10;;;;;;;21.17;13.18;;;;;;;2.83;92.90;101366.19;20976950;28;20692;-67
2021/11/10 09:55:13;;;;;;;20.58;13.77;;;;;;;3.12;91.05;101352.41;20976156;28;20048;-67
2021/11/10 10:05:16;;;;;;;21.50;13.00;;;;;;;3.50;89.80;101343.16;20976638;28;20044;-67
2021/11/10 10:15:20;;;;;;;19.15;12.05;;;;;;;3.90;89.07;101347.69;20932530;28;20049;-67
2021/11/10 10:25:36;;;;;;;25.50;14.80;;;;;;;3.86;85.01;101341.56;20907591;28;20079;-67
2021/11/10 10:35:58;;;;;;;24.88;14.10;;;;;;;4.23;84.79;101359.78;20906825;28;20056;-67
2021/11/10 10:46:00;;;;;;;27.05;14.05;;;;;;;4.50;84.44;101356.97;20906840;28;20087;-67
2021/11/10 10:56:15;;;;;;;22.90;14.13;;;;;;;4.64;85.37;101345.22;20905507;28;20044;-67
2021/11/10 11:06:25;;;;;;;23.90;14.65;;;;;;;5.01;84.27;101325.31;20903996;28;20063;-67
2021/11/10 11:16:40;;;;;;;26.65;14.80;;;;;;;4.94;83.92;101302.69;20958173;28;20055;-67
2021/11/10 11:26:42;;;;;;;25.55;15.75;;;;;;;4.91;84.86;101298.28;20983785;28;20057;-67
2021/11/10 11:36:53;;;;;;;25.08;16.17;;;;;;;5.18;85.26;101307.50;20950329;28;20102;-70
2021/11/10 11:46:55;;;;;;;27.75;16.52;;;;;;;5.28;83.22;101305.13;20900892;28;20106;-67
2021/11/10 11:57:01;;;;;;;27.58;15.88;;;;;;;5.44;83.60;101287.25;20900548;28;20175;-67
2021/11/10 12:07:06;;;;;;;24.27;14.82;;;;;;;5.65;82.91;101280.75;20899243;28;20057;-67
2021/11/10 12:17:12;;;;;;;25.95;14.60;;;;;;;5.76;82.44;101273.13;20899545;28;20040;-67
2021/11/10 12:27:32;;;;;;;28.92;16.60;;;;;;;5.94;82.36;101264.84;20897819;28;20711;-67
2021/11/10 12:37:39;;;;;;;29.83;15.73;;;;;;;5.99;81.41;101254.47;20897863;28;20041;-67
2021/11/10 12:47:45;;;;;;;23.25;14.20;;;;;;;6.21;80.56;101251.38;20899657;28;20647;-67
2021/11/10 12:57:48;;;;;;;24.75;14.90;;;;;;;6.30;80.13;101241.13;20898595;28;20052;-67
2021/11/10 13:08:00;;;;;;;25.45;14.80;;;;;;;6.21;80.80;101233.19;20925233;28;20037;-69
2021/11/10 13:18:19;;;;;;;22.02;13.45;;;;;;;6.37;79.46;101239.47;20906396;28;20098;-67
2021/11/10 13:28:20;;;;;;;22.40;13.70;;;;;;;6.69;78.17;101245.16;20893969;28;20064;-67
2021/11/10 13:38:40;;;;;;;23.38;12.52;;;;;;;6.83;78.35;101242.75;20892686;28;20053;-67
2021/11/10 13:48:41;;;;;;;23.27;12.50;;;;;;;6.87;78.55;101234.13;20893969;28;20134;-66
2021/11/10 13:58:43;;;;;;;30.40;14.57;;;;;;;6.96;77.65;101209.94;20907940;28;20542;-66
2021/11/10 14:09:08;;;;;;;24.48;15.45;;;;;;;6.85;78.25;101197.66;20907166;28;20437;-66
2021/11/10 14:19:09;;;;;;;25.67;15.38;;;;;;;6.63;80.15;101211.25;20989670;28;20052;-68
2021/11/10 14:29:14;;;;;;;29.27;16.63;;;;;;;6.64;78.63;101215.59;20993337;28;20052;-68
2021/11/10 14:39:23;;;;;;;;;;;;;;;6.40;79.95;101222.19;20972593;28;20049;-69
2021/11/10 14:49:29;;;;;;;26.65;15.13;;;;;;;6.41;80.10;101204.88;20918413;28;19967;-69
2021/11/10 14:59:36;;;;;;;28.50;14.93;;;;;;;6.26;80.74;101205.53;20909608;28;20095;-69
2021/11/10 15:09:44;;;;;;;29.05;16.20;;;;;;;6.21;81.33;101219.31;20901670;28;20048;-67
2021/11/10 15:19:48;;;;;;;37.47;21.70;;;;;;;6.05;81.81;101200.00;20902553;28;21024;-69
2021/11/10 15:29:50;;;;;;;27.50;15.97;;;;;;;5.76;84.09;101208.19;20896599;28;20561;-66
2021/11/10 15:39:52;;;;;;;38.63;21.25;;;;;;;5.50;85.65;101212.91;20900434;28;20494;-72
2021/11/10 15:49:54;;;;;;;35.75;20.00;;;;;;;5.36;86.91;101220.44;20899505;28;20090;-71
2021/11/10 15:59:55;;;;;;;30.52;17.27;;;;;;;5.08;88.29;101213.00;20899227;28;20044;-72
2021/11/10 16:09:57;;;;;;;46.95;25.60;;;;;;;4.76;89.71;101228.78;20899747;28;20053;-72
2021/11/10 16:19:59;;;;;;;35.58;20.35;;;;;;;4.54;90.63;101239.53;20979669;28;20449;-71
2021/11/10 16:30:01;;;;;;;30.50;16.85;;;;;;;4.34;91.55;101245.13;20978805;28;20057;-71
2021/11/10 16:40:04;;;;;;;28.83;15.90;;;;;;;4.17;91.87;101254.25;20979129;28;20044;-71
2021/11/10 16:50:07;;;;;;;27.27;16.02;;;;;;;3.92;93.11;101246.69;20977807;28;20409;-68
2021/11/10 17:00:14;;;;;;;36.90;16.55;;;;;;;4.10;90.09;101241.97;20975001;28;20037;-68
2021/11/10 17:10:16;;;;;;;37.03;14.93;;;;;;;3.61;93.04;101245.94;20971903;28;20151;-68
2021/11/10 17:20:19;;;;;;;26.15;14.45;;;;;;;3.48;93.00;101228.31;20893320;28;20049;-67
2021/11/10 17:30:20;;;;;;;29.33;15.05;;;;;;;3.36;92.78;101223.69;20920060;28;20122;-67
2021/11/10 17:40:22;;;;;;;31.02;15.18;;;;;;;3.22;93.05;101235.38;20965969;28;20048;-67
2021/11/10 17:50:24;;;;;;;33.90;17.00;;;;;;;3.11;93.59;101253.19;20967201;28;20048;-67
2021/11/10 18:00:28;;;;;;;26.60;15.70;;;;;;;3.00;93.36;101241.66;20966094;28;20527;-67
2021/11/10 18:10:30;;;;;;;34.75;19.30;;;;;;;3.08;93.57;101227.25;20967813;28;20090;-67
2021/11/10 18:20:32;;;;;;;36.92;20.25;;;;;;;3.01;94.82;101221.00;20966015;28;20041;-67
2021/11/10 18:30:33;;;;;;;34.60;20.38;;;;;;;2.97;94.32;101241.56;20966429;28;20041;-67
2021/11/10 18:40:35;;;;;;;39.92;22.17;;;;;;;2.76;93.42;101234.06;20978237;28;20446;-68
2021/11/10 18:50:37;;;;;;;42.35;23.25;;;;;;;2.76;95.00;101244.41;20979337;28;20102;-67
2021/11/10 19:00:38;;;;;;;37.97;21.98;;;;;;;2.78;95.43;101248.81;20979387;28;20041;-66
2021/11/10 19:10:56;;;;;;;32.85;19.35;;;;;;;2.69;95.37;101248.53;20977569;28;20049;-67
2021/11/10 19:30:59;;;;;;;40.08;21.90;;;;;;;2.54;95.44;101253.25;20976228;28;20045;-66
2021/11/10 19:41:01;;;;;;;50.20;23.95;;;;;;;2.50;95.72;101269.50;20975827;28;20048;-67
2021/11/10 19:51:03;;;;;;;36.20;20.48;;;;;;;2.40;95.07;101262.28;20976996;28;20048;-67
2021/11/10 20:01:12;;;;;;;36.20;21.13;;;;;;;2.26;95.00;101246.34;20976370;28;20053;-67
2021/11/10 20:11:14;;;;;;;44.95;26.65;;;;;;;2.39;96.08;101260.50;20975130;28;20048;-67
2021/11/10 20:21:16;;;;;;;50.25;27.20;;;;;;;2.54;96.08;101261.88;20973247;28;20048;-67
2021/11/10 20:31:17;;;;;;;50.00;26.52;;;;;;;2.49;94.99;101270.31;20973372;28;20559;-67
2021/11/10 20:41:19;;;;;;;55.45;30.98;;;;;;;2.43;96.44;101263.25;20970421;28;20037;-67
2021/11/10 20:51:21;;;;;;;53.03;30.23;;;;;;;2.34;95.88;101273.28;20970186;28;20060;-66
2021/11/10 21:01:23;;;;;;;57.92;31.00;;;;;;;2.24;95.96;101259.19;20969242;28;20116;-67
2021/11/10 21:11:25;;;;;;;55.10;30.23;;;;;;;2.08;96.00;101261.25;20969402;28;20059;-67
2021/11/10 21:21:26;;;;;;;64.38;34.15;;;;;;;2.02;95.88;101256.78;20967645;28;20166;-66
2021/11/10 21:31:28;;;;;;;50.20;27.42;;;;;;;1.92;95.58;101254.72;20967685;28;20041;-67
2021/11/10 21:41:29;;;;;;;50.53;27.13;;;;;;;1.83;96.33;101250.13;20968170;28;20131;-68
2021/11/10 21:51:34;;;;;;;52.60;28.05;;;;;;;1.75;96.56;101244.69;20968566;28;20040;-67
2021/11/10 22:01:36;;;;;;;;;;;;;;;1.71;96.16;101234.22;20966875;28;20049;-67
2021/11/10 22:11:39;;;;;;;58.78;29.42;;;;;;;1.59;95.90;101228.66;20971487;28;19942;-68
2021/11/10 22:21:41;;;;;;;54.45;28.00;;;;;;;1.55;95.58;101227.66;20982377;28;20044;-67
2021/11/10 22:31:43;;;;;;;54.97;27.48;;;;;;;1.45;96.08;101231.63;20982569;28;20049;-67
2021/11/10 22:41:45;;;;;;;57.13;28.27;;;;;;;1.39;95.69;101235.69;20979356;28;20041;-67
2021/11/10 22:51:46;;;;;;;66.95;32.47;;;;;;;1.26;95.37;101208.59;20976188;28;20197;-67
2021/11/10 23:01:48;;;;;;;70.15;34.22;;;;;;;1.22;95.94;101217.06;20979223;28;20098;-67
2021/11/10 23:11:50;;;;;;;69.22;34.10;;;;;;;1.17;94.52;101229.78;20980331;28;20068;-68
2021/11/10 23:21:52;;;;;;;59.13;31.70;;;;;;;1.07;94.60;101244.88;20979750;28;20225;-69
2021/11/10 23:31:53;;;;;;;52.20;27.33;;;;;;;0.94;94.16;101236.69;20978636;28;20040;-68
2021/11/10 23:41:55;;;;;;;59.60;31.85;;;;;;;0.84;94.19;101226.00;20978058;28;20390;-69
2021/11/10 23:51:57;;;;;;;56.33;28.30;;;;;;;0.81;94.49;101220.72;20978999;28;20094;-68
